sensor_id;sensor_type;location;lat;lon;timestamp;P1;durP1;ratioP1;P2;durP2;ratioP2
27632;SDS011;15046;50.930;13.334;2022-08-19T00:00:26;50.97;;;37.85;;
27632;SDS011;15046;50.930;13.334;2022-08-19T00:02:52;47.95;;;35.20;;
27632;SDS011;15046;50.930;13.334;2022-08-19T00:05:19;48.60;;;36.70;;
27632;SDS011;15046;50.930;13.334;2022-08-19T00:07:45;56.63;;;39.83;;
27632;SDS011;15046;50.930;13.334;2022-08-19T00:10:13;47.72;;;38.20;;
27632;SDS011;15046;50.930;13.334;2022-08-19T00:12:39;47.22;;;36.78;;
27632;SDS011;15046;50.930;13.334;2022-08-19T00:15:06;46.78;;;34.75;;
27632;SDS011;15046;50.930;13.334;2022-08-19T00:17:41;45.80;;;36.60;;
27632;SDS011;15046;50.930;13.334;2022-08-19T00:22:37;48.38;;;37.55;;
27632;SDS011;15046;50.930;13.334;2022-08-19T00:25:06;46.13;;;35.55;;
27632;SDS011;15046;50.930;13.334;2022-08-19T00:27:33;47.45;;;36.88;;
27632;SDS011;15046;50.930;13.334;2022-08-19T00:29:59;53.90;;;39.05;;
27632;SDS011;15046;50.930;13.334;2022-08-19T00:32:27;48.45;;;38.65;;
27632;SDS011;15046;50.930;13.334;2022-08-19T00:34:52;49.40;;;39.38;;
27632;SDS011;15046;50.930;13.334;2022-08-19T00:37:19;51.47;;;40.05;;
27632;SDS011;15046;50.930;13.334;2022-08-19T00:39:50;49.88;;;38.40;;
27632;SDS011;15046;50.930;13.334;2022-08-19T00:42:16;44.08;;;36.58;;
27632;SDS011;15046;50.930;13.334;2022-08-19T00:44:44;49.78;;;39.47;;
27632;SDS011;15046;50.930;13.334;2022-08-19T00:47:10;47.63;;;39.60;;
27632;SDS011;15046;50.930;13.334;2022-08-19T00:49:40;50.08;;;38.53;;
27632;SDS011;15046;50.930;13.334;2022-08-19T00:52:20;49.57;;;40.00;;
27632;SDS011;15046;50.930;13.334;2022-08-19T00:54:58;59.92;;;43.53;;
27632;SDS011;15046;50.930;13.334;2022-08-19T00:57:30;50.10;;;38.63;;
27632;SDS011;15046;50.930;13.334;2022-08-19T01:00:00;61.05;;;43.53;;
27632;SDS011;15046;50.930;13.334;2022-08-19T01:02:27;55.78;;;41.97;;
27632;SDS011;15046;50.930;13.334;2022-08-19T01:04:54;52.70;;;40.95;;
27632;SDS011;15046;50.930;13.334;2022-08-19T01:07:20;58.53;;;43.83;;
27632;SDS011;15046;50.930;13.334;2022-08-19T01:09:46;53.40;;;42.03;;
27632;SDS011;15046;50.930;13.334;2022-08-19T01:12:13;50.70;;;39.60;;
27632;SDS011;15046;50.930;13.334;2022-08-19T01:14:39;53.55;;;38.55;;
27632;SDS011;15046;50.930;13.334;2022-08-19T01:17:07;54.45;;;41.60;;
27632;SDS011;15046;50.930;13.334;2022-08-19T01:19:36;56.25;;;42.60;;
27632;SDS011;15046;50.930;13.334;2022-08-19T01:22:11;60.22;;;41.40;;
27632;SDS011;15046;50.930;13.334;2022-08-19T01:24:41;58.10;;;42.47;;
27632;SDS011;15046;50.930;13.334;2022-08-19T01:27:07;59.22;;;42.92;;
27632;SDS011;15046;50.930;13.334;2022-08-19T01:29:34;57.55;;;42.45;;
27632;SDS011;15046;50.930;13.334;2022-08-19T01:34:29;58.33;;;43.35;;
27632;SDS011;15046;50.930;13.334;2022-08-19T01:36:55;59.25;;;43.00;;
27632;SDS011;15046;50.930;13.334;2022-08-19T01:39:22;58.15;;;42.88;;
27632;SDS011;15046;50.930;13.334;2022-08-19T01:41:49;54.42;;;41.25;;
27632;SDS011;15046;50.930;13.334;2022-08-19T01:44:19;57.72;;;43.20;;
27632;SDS011;15046;50.930;13.334;2022-08-19T01:46:48;56.20;;;43.10;;
27632;SDS011;15046;50.930;13.334;2022-08-19T01:49:16;53.47;;;39.72;;
27632;SDS011;15046;50.930;13.334;2022-08-19T01:51:43;51.30;;;39.35;;
27632;SDS011;15046;50.930;13.334;2022-08-19T01:54:10;52.72;;;39.15;;
27632;SDS011;15046;50.930;13.334;2022-08-19T01:56:37;63.03;;;43.47;;
27632;SDS011;15046;50.930;13.334;2022-08-19T01:59:08;55.53;;;41.08;;
27632;SDS011;15046;50.930;13.334;2022-08-19T02:01:36;59.53;;;42.67;;
27632;SDS011;15046;50.930;13.334;2022-08-19T02:04:02;61.28;;;42.92;;
27632;SDS011;15046;50.930;13.334;2022-08-19T02:06:28;64.03;;;44.72;;
27632;SDS011;15046;50.930;13.334;2022-08-19T02:08:55;70.60;;;46.22;;
27632;SDS011;15046;50.930;13.334;2022-08-19T02:11:25;67.43;;;46.63;;
27632;SDS011;15046;50.930;13.334;2022-08-19T02:13:55;67.22;;;45.28;;
27632;SDS011;15046;50.930;13.334;2022-08-19T02:16:20;65.15;;;46.08;;
27632;SDS011;15046;50.930;13.334;2022-08-19T02:18:46;62.58;;;44.20;;
27632;SDS011;15046;50.930;13.334;2022-08-19T02:21:16;76.40;;;45.95;;
27632;SDS011;15046;50.930;13.334;2022-08-19T02:23:43;91.70;;;53.50;;
27632;SDS011;15046;50.930;13.334;2022-08-19T02:26:09;84.22;;;51.10;;
27632;SDS011;15046;50.930;13.334;2022-08-19T02:28:36;93.53;;;51.38;;
27632;SDS011;15046;50.930;13.334;2022-08-19T02:31:02;99.97;;;53.47;;
27632;SDS011;15046;50.930;13.334;2022-08-19T02:33:29;91.40;;;52.22;;
27632;SDS011;15046;50.930;13.334;2022-08-19T02:35:55;72.13;;;48.50;;
27632;SDS011;15046;50.930;13.334;2022-08-19T02:38:21;68.68;;;47.60;;
27632;SDS011;15046;50.930;13.334;2022-08-19T02:41:00;71.85;;;46.08;;
27632;SDS011;15046;50.930;13.334;2022-08-19T02:43:27;63.10;;;44.90;;
27632;SDS011;15046;50.930;13.334;2022-08-19T02:45:55;60.50;;;44.60;;
27632;SDS011;15046;50.930;13.334;2022-08-19T02:48:21;59.63;;;44.15;;
27632;SDS011;15046;50.930;13.334;2022-08-19T02:50:49;50.58;;;40.92;;
27632;SDS011;15046;50.930;13.334;2022-08-19T02:53:23;47.20;;;37.47;;
27632;SDS011;15046;50.930;13.334;2022-08-19T02:55:51;52.30;;;41.90;;
27632;SDS011;15046;50.930;13.334;2022-08-19T02:58:17;43.72;;;37.38;;
27632;SDS011;15046;50.930;13.334;2022-08-19T03:00:45;43.85;;;36.38;;
27632;SDS011;15046;50.930;13.334;2022-08-19T03:03:13;43.42;;;37.58;;
27632;SDS011;15046;50.930;13.334;2022-08-19T03:05:40;40.92;;;35.97;;
27632;SDS011;15046;50.930;13.334;2022-08-19T03:08:07;39.80;;;34.63;;
27632;SDS011;15046;50.930;13.334;2022-08-19T03:10:39;40.42;;;35.40;;
27632;SDS011;15046;50.930;13.334;2022-08-19T03:13:13;44.72;;;35.72;;
27632;SDS011;15046;50.930;13.334;2022-08-19T03:15:44;42.67;;;36.33;;
27632;SDS011;15046;50.930;13.334;2022-08-19T03:18:11;41.55;;;35.53;;
27632;SDS011;15046;50.930;13.334;2022-08-19T03:20:41;45.70;;;36.33;;
27632;SDS011;15046;50.930;13.334;2022-08-19T03:23:08;41.72;;;34.58;;
27632;SDS011;15046;50.930;13.334;2022-08-19T03:25:38;41.67;;;35.50;;
27632;SDS011;15046;50.930;13.334;2022-08-19T03:28:10;39.97;;;34.22;;
27632;SDS011;15046;50.930;13.334;2022-08-19T03:30:37;41.80;;;35.80;;
27632;SDS011;15046;50.930;13.334;2022-08-19T03:33:05;42.47;;;36.15;;
27632;SDS011;15046;50.930;13.334;2022-08-19T03:35:35;47.65;;;38.03;;
27632;SDS011;15046;50.930;13.334;2022-08-19T03:38:04;41.80;;;36.25;;
27632;SDS011;15046;50.930;13.334;2022-08-19T03:40:31;44.50;;;37.55;;
27632;SDS011;15046;50.930;13.334;2022-08-19T03:43:01;45.13;;;36.72;;
27632;SDS011;15046;50.930;13.334;2022-08-19T03:45:27;44.35;;;35.15;;
27632;SDS011;15046;50.930;13.334;2022-08-19T03:47:53;43.25;;;35.83;;
27632;SDS011;15046;50.930;13.334;2022-08-19T03:50:19;40.63;;;34.85;;
27632;SDS011;15046;50.930;13.334;2022-08-19T03:52:48;39.33;;;33.40;;
27632;SDS011;15046;50.930;13.334;2022-08-19T03:55:16;40.22;;;33.33;;
27632;SDS011;15046;50.930;13.334;2022-08-19T03:57:43;36.08;;;31.45;;
27632;SDS011;15046;50.930;13.334;2022-08-19T04:00:11;37.75;;;31.13;;
27632;SDS011;15046;50.930;13.334;2022-08-19T04:02:37;37.65;;;31.42;;
27632;SDS011;15046;50.930;13.334;2022-08-19T04:05:03;40.75;;;30.70;;
27632;SDS011;15046;50.930;13.334;2022-08-19T04:07:30;34.75;;;30.40;;
27632;SDS011;15046;50.930;13.334;2022-08-19T04:09:55;46.10;;;34.55;;
27632;SDS011;15046;50.930;13.334;2022-08-19T04:12:21;38.20;;;31.63;;
27632;SDS011;15046;50.930;13.334;2022-08-19T04:14:48;33.78;;;29.73;;
27632;SDS011;15046;50.930;13.334;2022-08-19T04:17:15;33.30;;;29.65;;
27632;SDS011;15046;50.930;13.334;2022-08-19T04:19:40;38.40;;;31.42;;
27632;SDS011;15046;50.930;13.334;2022-08-19T04:22:08;33.10;;;29.20;;
27632;SDS011;15046;50.930;13.334;2022-08-19T04:24:36;31.30;;;27.90;;
27632;SDS011;15046;50.930;13.334;2022-08-19T04:27:02;36.28;;;29.38;;
27632;SDS011;15046;50.930;13.334;2022-08-19T04:29:30;33.13;;;28.60;;
27632;SDS011;15046;50.930;13.334;2022-08-19T04:31:56;31.65;;;28.20;;
27632;SDS011;15046;50.930;13.334;2022-08-19T04:34:24;34.67;;;30.38;;
27632;SDS011;15046;50.930;13.334;2022-08-19T04:36:54;34.38;;;29.85;;
27632;SDS011;15046;50.930;13.334;2022-08-19T04:39:23;34.22;;;30.45;;
27632;SDS011;15046;50.930;13.334;2022-08-19T04:42:11;37.35;;;31.23;;
27632;SDS011;15046;50.930;13.334;2022-08-19T04:44:56;37.85;;;32.45;;
27632;SDS011;15046;50.930;13.334;2022-08-19T04:47:23;37.25;;;30.98;;
27632;SDS011;15046;50.930;13.334;2022-08-19T04:49:49;35.60;;;31.52;;
27632;SDS011;15046;50.930;13.334;2022-08-19T04:52:15;42.08;;;33.80;;
27632;SDS011;15046;50.930;13.334;2022-08-19T04:54:41;42.00;;;33.55;;
27632;SDS011;15046;50.930;13.334;2022-08-19T04:57:07;37.13;;;32.33;;
27632;SDS011;15046;50.930;13.334;2022-08-19T04:59:35;37.65;;;31.65;;
27632;SDS011;15046;50.930;13.334;2022-08-19T05:02:02;39.33;;;31.55;;
27632;SDS011;15046;50.930;13.334;2022-08-19T05:04:29;41.20;;;33.80;;
27632;SDS011;15046;50.930;13.334;2022-08-19T05:06:56;40.40;;;33.05;;
27632;SDS011;15046;50.930;13.334;2022-08-19T05:09:22;43.50;;;35.60;;
27632;SDS011;15046;50.930;13.334;2022-08-19T05:11:48;42.70;;;35.20;;
27632;SDS011;15046;50.930;13.334;2022-08-19T05:14:16;38.88;;;33.45;;
27632;SDS011;15046;50.930;13.334;2022-08-19T05:16:42;42.25;;;34.08;;
27632;SDS011;15046;50.930;13.334;2022-08-19T05:19:07;36.50;;;31.33;;
27632;SDS011;15046;50.930;13.334;2022-08-19T05:21:52;34.65;;;29.17;;
27632;SDS011;15046;50.930;13.334;2022-08-19T05:24:36;35.47;;;30.38;;
27632;SDS011;15046;50.930;13.334;2022-08-19T05:27:02;38.60;;;31.83;;
27632;SDS011;15046;50.930;13.334;2022-08-19T05:29:30;31.88;;;27.40;;
27632;SDS011;15046;50.930;13.334;2022-08-19T05:31:57;31.85;;;27.70;;
27632;SDS011;15046;50.930;13.334;2022-08-19T05:34:24;29.58;;;25.65;;
27632;SDS011;15046;50.930;13.334;2022-08-19T05:36:52;34.20;;;27.85;;
27632;SDS011;15046;50.930;13.334;2022-08-19T05:39:22;31.85;;;24.92;;
27632;SDS011;15046;50.930;13.334;2022-08-19T05:42:11;31.13;;;25.67;;
27632;SDS011;15046;50.930;13.334;2022-08-19T05:44:39;29.60;;;25.08;;
27632;SDS011;15046;50.930;13.334;2022-08-19T05:47:09;32.92;;;27.15;;
27632;SDS011;15046;50.930;13.334;2022-08-19T05:49:38;36.03;;;28.17;;
27632;SDS011;15046;50.930;13.334;2022-08-19T05:52:04;35.33;;;29.27;;
27632;SDS011;15046;50.930;13.334;2022-08-19T05:54:33;32.50;;;28.63;;
27632;SDS011;15046;50.930;13.334;2022-08-19T05:57:01;37.78;;;29.52;;
27632;SDS011;15046;50.930;13.334;2022-08-19T05:59:27;36.67;;;30.77;;
27632;SDS011;15046;50.930;13.334;2022-08-19T06:01:54;38.13;;;30.20;;
27632;SDS011;15046;50.930;13.334;2022-08-19T06:04:20;34.85;;;29.95;;
27632;SDS011;15046;50.930;13.334;2022-08-19T06:06:47;40.28;;;30.92;;
27632;SDS011;15046;50.930;13.334;2022-08-19T06:09:15;43.03;;;31.33;;
27632;SDS011;15046;50.930;13.334;2022-08-19T06:11:45;39.65;;;30.15;;
27632;SDS011;15046;50.930;13.334;2022-08-19T06:14:19;41.60;;;31.13;;
27632;SDS011;15046;50.930;13.334;2022-08-19T06:16:48;43.28;;;32.17;;
27632;SDS011;15046;50.930;13.334;2022-08-19T06:19:17;46.75;;;32.65;;
27632;SDS011;15046;50.930;13.334;2022-08-19T06:21:45;43.42;;;31.50;;
27632;SDS011;15046;50.930;13.334;2022-08-19T06:24:18;43.47;;;32.17;;
27632;SDS011;15046;50.930;13.334;2022-08-19T06:26:48;42.30;;;31.23;;
27632;SDS011;15046;50.930;13.334;2022-08-19T06:29:15;40.67;;;31.63;;
27632;SDS011;15046;50.930;13.334;2022-08-19T06:31:43;42.47;;;30.05;;
27632;SDS011;15046;50.930;13.334;2022-08-19T06:34:11;41.58;;;30.63;;
27632;SDS011;15046;50.930;13.334;2022-08-19T06:36:38;48.47;;;31.92;;
27632;SDS011;15046;50.930;13.334;2022-08-19T06:39:12;45.00;;;31.38;;
27632;SDS011;15046;50.930;13.334;2022-08-19T06:41:42;45.20;;;30.83;;
27632;SDS011;15046;50.930;13.334;2022-08-19T06:44:10;47.47;;;33.15;;
27632;SDS011;15046;50.930;13.334;2022-08-19T06:46:37;51.70;;;33.22;;
27632;SDS011;15046;50.930;13.334;2022-08-19T06:49:04;50.80;;;33.28;;
27632;SDS011;15046;50.930;13.334;2022-08-19T06:51:30;53.38;;;34.38;;
27632;SDS011;15046;50.930;13.334;2022-08-19T06:53:57;47.55;;;31.38;;
27632;SDS011;15046;50.930;13.334;2022-08-19T06:56:29;49.03;;;32.97;;
27632;SDS011;15046;50.930;13.334;2022-08-19T06:59:03;44.30;;;30.73;;
27632;SDS011;15046;50.930;13.334;2022-08-19T07:01:33;44.92;;;30.45;;
27632;SDS011;15046;50.930;13.334;2022-08-19T07:04:08;48.60;;;31.83;;
27632;SDS011;15046;50.930;13.334;2022-08-19T07:09:02;45.38;;;31.23;;
27632;SDS011;15046;50.930;13.334;2022-08-19T07:11:29;40.75;;;30.13;;
27632;SDS011;15046;50.930;13.334;2022-08-19T07:13:55;47.00;;;31.75;;
27632;SDS011;15046;50.930;13.334;2022-08-19T07:16:21;41.60;;;29.42;;
27632;SDS011;15046;50.930;13.334;2022-08-19T07:18:48;42.35;;;30.10;;
27632;SDS011;15046;50.930;13.334;2022-08-19T07:21:16;44.75;;;30.38;;
27632;SDS011;15046;50.930;13.334;2022-08-19T07:23:44;43.20;;;31.83;;
27632;SDS011;15046;50.930;13.334;2022-08-19T07:26:15;45.97;;;32.72;;
27632;SDS011;15046;50.930;13.334;2022-08-19T07:28:44;47.72;;;32.03;;
27632;SDS011;15046;50.930;13.334;2022-08-19T07:31:11;42.95;;;28.98;;
27632;SDS011;15046;50.930;13.334;2022-08-19T07:33:39;40.83;;;29.48;;
27632;SDS011;15046;50.930;13.334;2022-08-19T07:36:08;43.08;;;30.75;;
27632;SDS011;15046;50.930;13.334;2022-08-19T07:38:36;46.55;;;30.00;;
27632;SDS011;15046;50.930;13.334;2022-08-19T07:41:04;45.92;;;29.30;;
27632;SDS011;15046;50.930;13.334;2022-08-19T07:43:30;52.35;;;32.17;;
27632;SDS011;15046;50.930;13.334;2022-08-19T07:45:56;46.70;;;28.95;;
27632;SDS011;15046;50.930;13.334;2022-08-19T07:48:23;53.47;;;31.02;;
27632;SDS011;15046;50.930;13.334;2022-08-19T07:50:52;57.70;;;33.63;;
27632;SDS011;15046;50.930;13.334;2022-08-19T07:53:20;62.90;;;35.75;;
27632;SDS011;15046;50.930;13.334;2022-08-19T07:55:46;64.70;;;35.13;;
27632;SDS011;15046;50.930;13.334;2022-08-19T07:58:14;71.78;;;39.10;;
27632;SDS011;15046;50.930;13.334;2022-08-19T08:00:42;75.72;;;41.22;;
27632;SDS011;15046;50.930;13.334;2022-08-19T08:03:10;64.18;;;39.40;;
27632;SDS011;15046;50.930;13.334;2022-08-19T08:05:36;84.90;;;43.22;;
27632;SDS011;15046;50.930;13.334;2022-08-19T08:08:21;80.80;;;44.83;;
27632;SDS011;15046;50.930;13.334;2022-08-19T08:11:03;65.10;;;41.58;;
27632;SDS011;15046;50.930;13.334;2022-08-19T08:13:29;49.75;;;35.15;;
27632;SDS011;15046;50.930;13.334;2022-08-19T08:15:56;46.55;;;34.13;;
27632;SDS011;15046;50.930;13.334;2022-08-19T08:18:22;44.55;;;33.58;;
27632;SDS011;15046;50.930;13.334;2022-08-19T08:20:49;34.75;;;29.70;;
27632;SDS011;15046;50.930;13.334;2022-08-19T08:23:15;37.45;;;30.75;;
27632;SDS011;15046;50.930;13.334;2022-08-19T08:25:47;31.85;;;28.02;;
27632;SDS011;15046;50.930;13.334;2022-08-19T08:28:14;28.63;;;25.08;;
27632;SDS011;15046;50.930;13.334;2022-08-19T08:30:41;33.58;;;27.02;;
27632;SDS011;15046;50.930;13.334;2022-08-19T08:33:08;31.20;;;25.63;;
27632;SDS011;15046;50.930;13.334;2022-08-19T08:35:35;30.88;;;25.60;;
27632;SDS011;15046;50.930;13.334;2022-08-19T08:38:01;35.95;;;28.75;;
27632;SDS011;15046;50.930;13.334;2022-08-19T08:40:30;36.17;;;27.80;;
27632;SDS011;15046;50.930;13.334;2022-08-19T08:48:48;43.22;;;31.35;;
27632;SDS011;15046;50.930;13.334;2022-08-19T08:54:08;52.50;;;37.58;;
27632;SDS011;15046;50.930;13.334;2022-08-19T08:56:38;50.30;;;37.25;;
27632;SDS011;15046;50.930;13.334;2022-08-19T08:59:07;50.88;;;38.75;;
27632;SDS011;15046;50.930;13.334;2022-08-19T09:01:45;48.10;;;35.95;;
27632;SDS011;15046;50.930;13.334;2022-08-19T09:04:10;49.90;;;36.30;;
27632;SDS011;15046;50.930;13.334;2022-08-19T09:15:06;48.58;;;36.58;;
27632;SDS011;15046;50.930;13.334;2022-08-19T09:17:35;51.05;;;37.72;;
27632;SDS011;15046;50.930;13.334;2022-08-19T09:20:08;49.70;;;37.78;;
27632;SDS011;15046;50.930;13.334;2022-08-19T09:22:46;50.40;;;37.58;;
27632;SDS011;15046;50.930;13.334;2022-08-19T09:25:15;44.92;;;35.58;;
27632;SDS011;15046;50.930;13.334;2022-08-19T09:27:43;40.77;;;32.97;;
27632;SDS011;15046;50.930;13.334;2022-08-19T09:30:11;41.08;;;32.55;;
27632;SDS011;15046;50.930;13.334;2022-08-19T09:32:43;45.65;;;34.60;;
27632;SDS011;15046;50.930;13.334;2022-08-19T09:35:10;40.05;;;31.75;;
27632;SDS011;15046;50.930;13.334;2022-08-19T09:37:37;43.17;;;32.30;;
27632;SDS011;15046;50.930;13.334;2022-08-19T09:40:03;41.30;;;33.20;;
27632;SDS011;15046;50.930;13.334;2022-08-19T09:42:30;42.80;;;31.95;;
27632;SDS011;15046;50.930;13.334;2022-08-19T09:44:56;37.00;;;29.48;;
27632;SDS011;15046;50.930;13.334;2022-08-19T09:47:21;39.83;;;30.67;;
27632;SDS011;15046;50.930;13.334;2022-08-19T09:49:47;41.08;;;32.85;;
27632;SDS011;15046;50.930;13.334;2022-08-19T09:52:15;45.28;;;33.38;;
27632;SDS011;15046;50.930;13.334;2022-08-19T09:54:42;35.45;;;29.25;;
27632;SDS011;15046;50.930;13.334;2022-08-19T09:57:08;35.95;;;28.77;;
27632;SDS011;15046;50.930;13.334;2022-08-19T09:59:34;30.77;;;25.63;;
27632;SDS011;15046;50.930;13.334;2022-08-19T10:01:59;30.27;;;26.15;;
27632;SDS011;15046;50.930;13.334;2022-08-19T10:04:25;31.63;;;25.35;;
27632;SDS011;15046;50.930;13.334;2022-08-19T10:07:11;27.25;;;23.25;;
27632;SDS011;15046;50.930;13.334;2022-08-19T10:09:37;26.42;;;22.63;;
27632;SDS011;15046;50.930;13.334;2022-08-19T10:12:05;28.27;;;24.00;;
27632;SDS011;15046;50.930;13.334;2022-08-19T10:14:31;25.27;;;22.42;;
27632;SDS011;15046;50.930;13.334;2022-08-19T10:16:57;19.25;;;16.95;;
27632;SDS011;15046;50.930;13.334;2022-08-19T10:19:25;16.40;;;14.63;;
27632;SDS011;15046;50.930;13.334;2022-08-19T10:21:57;15.02;;;11.23;;
27632;SDS011;15046;50.930;13.334;2022-08-19T10:24:23;12.68;;;10.60;;
27632;SDS011;15046;50.930;13.334;2022-08-19T10:26:50;10.90;;;9.57;;
27632;SDS011;15046;50.930;13.334;2022-08-19T10:29:16;11.00;;;9.90;;
27632;SDS011;15046;50.930;13.334;2022-08-19T10:31:42;9.68;;;7.28;;
27632;SDS011;15046;50.930;13.334;2022-08-19T10:34:08;9.52;;;8.50;;
27632;SDS011;15046;50.930;13.334;2022-08-19T10:36:35;8.32;;;7.45;;
27632;SDS011;15046;50.930;13.334;2022-08-19T10:39:08;9.32;;;7.63;;
27632;SDS011;15046;50.930;13.334;2022-08-19T10:41:37;8.40;;;7.50;;
27632;SDS011;15046;50.930;13.334;2022-08-19T10:44:04;8.45;;;7.65;;
27632;SDS011;15046;50.930;13.334;2022-08-19T10:46:33;6.43;;;5.70;;
27632;SDS011;15046;50.930;13.334;2022-08-19T10:49:02;5.90;;;5.07;;
27632;SDS011;15046;50.930;13.334;2022-08-19T10:51:30;7.32;;;5.63;;
27632;SDS011;15046;50.930;13.334;2022-08-19T10:54:15;5.78;;;5.18;;
27632;SDS011;15046;50.930;13.334;2022-08-19T10:56:41;7.93;;;6.07;;
27632;SDS011;15046;50.930;13.334;2022-08-19T10:59:21;6.80;;;6.10;;
27632;SDS011;15046;50.930;13.334;2022-08-19T11:01:49;7.38;;;6.50;;
27632;SDS011;15046;50.930;13.334;2022-08-19T11:04:17;8.45;;;7.55;;
27632;SDS011;15046;50.930;13.334;2022-08-19T11:06:44;8.77;;;6.90;;
27632;SDS011;15046;50.930;13.334;2022-08-19T11:09:13;8.45;;;7.55;;
27632;SDS011;15046;50.930;13.334;2022-08-19T11:11:44;10.32;;;8.45;;
27632;SDS011;15046;50.930;13.334;2022-08-19T11:14:11;9.43;;;7.88;;
27632;SDS011;15046;50.930;13.334;2022-08-19T11:16:40;9.38;;;8.38;;
27632;SDS011;15046;50.930;13.334;2022-08-19T11:19:07;14.60;;;12.85;;
27632;SDS011;15046;50.930;13.334;2022-08-19T11:21:36;16.20;;;13.82;;
27632;SDS011;15046;50.930;13.334;2022-08-19T11:24:08;19.48;;;17.17;;
27632;SDS011;15046;50.930;13.334;2022-08-19T11:26:36;18.33;;;16.50;;
27632;SDS011;15046;50.930;13.334;2022-08-19T11:29:03;17.92;;;16.02;;
27632;SDS011;15046;50.930;13.334;2022-08-19T11:31:32;19.63;;;15.27;;
27632;SDS011;15046;50.930;13.334;2022-08-19T11:34:03;18.20;;;16.27;;
27632;SDS011;15046;50.930;13.334;2022-08-19T11:36:31;20.73;;;17.35;;
27632;SDS011;15046;50.930;13.334;2022-08-19T11:39:00;20.55;;;18.35;;
27632;SDS011;15046;50.930;13.334;2022-08-19T11:41:26;24.48;;;20.05;;
27632;SDS011;15046;50.930;13.334;2022-08-19T11:43:53;21.80;;;19.42;;
27632;SDS011;15046;50.930;13.334;2022-08-19T11:46:20;23.00;;;19.77;;
27632;SDS011;15046;50.930;13.334;2022-08-19T11:48:48;22.15;;;19.38;;
27632;SDS011;15046;50.930;13.334;2022-08-19T11:51:17;24.33;;;19.92;;
27632;SDS011;15046;50.930;13.334;2022-08-19T11:53:45;27.83;;;24.85;;
27632;SDS011;15046;50.930;13.334;2022-08-19T11:56:11;40.17;;;31.35;;
27632;SDS011;15046;50.930;13.334;2022-08-19T11:58:37;45.05;;;36.15;;
27632;SDS011;15046;50.930;13.334;2022-08-19T12:01:10;44.55;;;36.60;;
27632;SDS011;15046;50.930;13.334;2022-08-19T12:03:37;43.92;;;35.35;;
27632;SDS011;15046;50.930;13.334;2022-08-19T12:06:07;48.42;;;38.13;;
27632;SDS011;15046;50.930;13.334;2022-08-19T12:08:36;44.70;;;36.08;;
27632;SDS011;15046;50.930;13.334;2022-08-19T12:11:03;53.13;;;40.15;;
27632;SDS011;15046;50.930;13.334;2022-08-19T12:13:33;56.75;;;41.60;;
27632;SDS011;15046;50.930;13.334;2022-08-19T12:15:59;50.25;;;41.22;;
27632;SDS011;15046;50.930;13.334;2022-08-19T12:18:25;49.67;;;40.58;;
27632;SDS011;15046;50.930;13.334;2022-08-19T12:20:52;57.13;;;42.78;;
27632;SDS011;15046;50.930;13.334;2022-08-19T12:25:48;57.50;;;41.85;;
27632;SDS011;15046;50.930;13.334;2022-08-19T12:28:18;62.92;;;45.38;;
27632;SDS011;15046;50.930;13.334;2022-08-19T12:30:45;63.35;;;47.78;;
27632;SDS011;15046;50.930;13.334;2022-08-19T12:33:11;59.78;;;45.35;;
27632;SDS011;15046;50.930;13.334;2022-08-19T12:35:41;69.85;;;48.88;;
27632;SDS011;15046;50.930;13.334;2022-08-19T12:38:11;65.20;;;47.13;;
27632;SDS011;15046;50.930;13.334;2022-08-19T12:40:39;62.47;;;46.58;;
27632;SDS011;15046;50.930;13.334;2022-08-19T12:43:06;60.50;;;45.35;;
27632;SDS011;15046;50.930;13.334;2022-08-19T12:45:32;66.63;;;47.67;;
27632;SDS011;15046;50.930;13.334;2022-08-19T12:47:59;62.50;;;46.88;;
27632;SDS011;15046;50.930;13.334;2022-08-19T12:50:25;67.03;;;50.30;;
27632;SDS011;15046;50.930;13.334;2022-08-19T12:52:50;66.88;;;48.25;;
27632;SDS011;15046;50.930;13.334;2022-08-19T12:55:16;76.88;;;51.30;;
27632;SDS011;15046;50.930;13.334;2022-08-19T12:57:43;76.22;;;50.72;;
27632;SDS011;15046;50.930;13.334;2022-08-19T13:00:11;79.78;;;50.85;;
27632;SDS011;15046;50.930;13.334;2022-08-19T13:02:42;78.80;;;49.75;;
27632;SDS011;15046;50.930;13.334;2022-08-19T13:05:11;79.10;;;51.47;;
27632;SDS011;15046;50.930;13.334;2022-08-19T13:07:40;95.45;;;56.03;;
27632;SDS011;15046;50.930;13.334;2022-08-19T13:10:10;85.55;;;54.13;;
27632;SDS011;15046;50.930;13.334;2022-08-19T13:12:37;102.35;;;54.60;;
27632;SDS011;15046;50.930;13.334;2022-08-19T13:15:04;111.00;;;55.97;;
27632;SDS011;15046;50.930;13.334;2022-08-19T13:17:30;136.85;;;59.63;;
27632;SDS011;15046;50.930;13.334;2022-08-19T13:19:58;116.05;;;57.42;;
27632;SDS011;15046;50.930;13.334;2022-08-19T13:22:24;121.43;;;59.67;;
27632;SDS011;15046;50.930;13.334;2022-08-19T13:24:50;110.70;;;58.45;;
27632;SDS011;15046;50.930;13.334;2022-08-19T13:27:16;134.50;;;60.28;;
27632;SDS011;15046;50.930;13.334;2022-08-19T13:29:42;108.32;;;57.72;;
27632;SDS011;15046;50.930;13.334;2022-08-19T13:32:26;98.97;;;58.97;;
27632;SDS011;15046;50.930;13.334;2022-08-19T13:35:10;97.43;;;56.85;;
27632;SDS011;15046;50.930;13.334;2022-08-19T13:37:37;100.07;;;59.60;;
27632;SDS011;15046;50.930;13.334;2022-08-19T13:40:10;93.88;;;56.35;;
27632;SDS011;15046;50.930;13.334;2022-08-19T13:42:43;81.65;;;56.38;;
27632;SDS011;15046;50.930;13.334;2022-08-19T13:45:11;79.72;;;52.92;;
27632;SDS011;15046;50.930;13.334;2022-08-19T13:47:40;73.28;;;51.38;;
27632;SDS011;15046;50.930;13.334;2022-08-19T13:50:10;64.45;;;45.70;;
27632;SDS011;15046;50.930;13.334;2022-08-19T13:52:37;62.90;;;47.40;;
27632;SDS011;15046;50.930;13.334;2022-08-19T13:55:04;66.38;;;46.10;;
27632;SDS011;15046;50.930;13.334;2022-08-19T13:57:31;65.93;;;48.30;;
27632;SDS011;15046;50.930;13.334;2022-08-19T13:59:59;68.18;;;48.60;;
27632;SDS011;15046;50.930;13.334;2022-08-19T14:02:26;75.87;;;51.57;;
27632;SDS011;15046;50.930;13.334;2022-08-19T14:04:52;76.05;;;52.65;;
27632;SDS011;15046;50.930;13.334;2022-08-19T14:07:18;81.40;;;52.63;;
27632;SDS011;15046;50.930;13.334;2022-08-19T14:09:44;80.55;;;53.00;;
27632;SDS011;15046;50.930;13.334;2022-08-19T14:12:09;70.55;;;48.30;;
27632;SDS011;15046;50.930;13.334;2022-08-19T14:14:36;68.72;;;47.80;;
27632;SDS011;15046;50.930;13.334;2022-08-19T14:17:06;62.47;;;46.40;;
27632;SDS011;15046;50.930;13.334;2022-08-19T14:19:33;58.33;;;43.67;;
27632;SDS011;15046;50.930;13.334;2022-08-19T14:21:59;60.15;;;46.03;;
27632;SDS011;15046;50.930;13.334;2022-08-19T14:24:24;56.97;;;44.60;;
27632;SDS011;15046;50.930;13.334;2022-08-19T14:26:50;61.00;;;44.53;;
27632;SDS011;15046;50.930;13.334;2022-08-19T14:29:16;52.53;;;42.05;;
27632;SDS011;15046;50.930;13.334;2022-08-19T14:31:42;56.75;;;42.28;;
27632;SDS011;15046;50.930;13.334;2022-08-19T14:34:09;52.80;;;41.75;;
27632;SDS011;15046;50.930;13.334;2022-08-19T14:36:35;52.15;;;41.10;;
27632;SDS011;15046;50.930;13.334;2022-08-19T14:39:02;52.13;;;40.85;;
27632;SDS011;15046;50.930;13.334;2022-08-19T14:41:29;51.97;;;40.80;;
27632;SDS011;15046;50.930;13.334;2022-08-19T14:43:55;55.03;;;41.40;;